Time;durP1;ratioP1;P1;durP2;ratioP2;P2;SDS_P1;SDS_P2;PMS_P1;PMS_P2;Temp;Humidity;BMP_temperature;BMP_pressure;BME280_temperature;BME280_humidity;BME280_pressure;Samples;Min_cycle;Max_cycle;Signal;HPM_P1;HPM_P2
2021/08/01 00:01:25;;;;;;;5.97;2.85;;;;;;;;;;5001446;28;20082;-80
2021/08/01 00:03:51;;;;;;;5.03;2.78;;;;;;;;;;5000515;28;20098;-80
2021/08/01 00:06:17;;;;;;;4.88;2.70;;;;;;;;;;5004886;28;20484;-80
2021/08/01 00:08:43;;;;;;;5.35;2.67;;;;;;;;;;5009221;28;20046;-80
2021/08/01 00:11:09;;;;;;;7.68;2.42;;;;;;;;;;5000043;28;20046;-80
2021/08/01 00:13:35;;;;;;;4.40;2.72;;;;;;;;;;5000701;28;20026;-80
2021/08/01 00:16:01;;;;;;;7.05;2.80;;;;;;;;;;5001290;28;20030;-80
2021/08/01 00:18:27;;;;;;;7.32;2.80;;;;;;;;;;5000236;28;20033;-80
2021/08/01 00:20:54;;;;;;;5.43;3.03;;;;;;;;;;4999576;28;20049;-80
2021/08/01 00:23:20;;;;;;;6.65;2.83;;;;;;;;;;5000474;28;20562;-80
2021/08/01 00:25:46;;;;;;;6.35;3.00;;;;;;;;;;5000941;28;20034;-80
2021/08/01 00:28:12;;;;;;;5.38;2.70;;;;;;;;;;5001150;28;20057;-79
2021/08/01 00:30:38;;;;;;;6.63;2.80;;;;;;;;;;5000922;28;20030;-79
2021/08/01 00:33:04;;;;;;;3.78;2.35;;;;;;;;;;5001755;28;20030;-80
2021/08/01 00:35:30;;;;;;;7.25;2.95;;;;;;;;;;5001682;28;20030;-80
2021/08/01 00:37:56;;;;;;;5.40;2.72;;;;;;;;;;5001241;28;20038;-80
2021/08/01 00:40:23;;;;;;;5.13;2.70;;;;;;;;;;5001944;28;20038;-80
2021/08/01 00:42:50;;;;;;;3.92;2.30;;;;;;;;;;4998430;28;20105;-79
2021/08/01 00:45:16;;;;;;;5.00;2.42;;;;;;;;;;4999827;28;20027;-80
2021/08/01 00:47:43;;;;;;;4.75;2.90;;;;;;;;;;5000125;28;20064;-80
2021/08/01 00:50:09;;;;;;;7.30;2.60;;;;;;;;;;4999682;28;20031;-80
2021/08/01 00:52:36;;;;;;;6.45;2.38;;;;;;;;;;5000276;28;20109;-80
2021/08/01 00:55:09;;;;;;;5.07;2.53;;;;;;;;;;5000167;28;20101;-80
2021/08/01 00:57:35;;;;;;;;;;;;;;;;;;4998759;28;20026;-80
2021/08/01 01:00:01;;;;;;;9.65;2.70;;;;;;;;;;4999249;28;19912;-80
2021/08/01 01:02:30;;;;;;;9.90;2.67;;;;;;;;;;4999721;28;20065;-79
2021/08/01 01:05:11;;;;;;;5.40;2.72;;;;;;;;;;5007194;28;20038;-80
2021/08/01 01:07:40;;;;;;;4.97;2.63;;;;;;;;;;5009721;28;20117;-80
2021/08/01 01:10:13;;;;;;;10.85;2.50;;;;;;;;;;5002011;28;20490;-80
2021/08/01 01:12:44;;;;;;;7.82;2.92;;;;;;;;;;4999446;28;20038;-79
2021/08/01 01:15:16;;;;;;;5.10;2.20;;;20.50;90.60;;;;;;4997839;28;20037;-78
2021/08/01 01:17:42;;;;;;;5.95;2.20;;;;;;;;;;4997206;28;20030;-79
2021/08/01 01:20:18;;;;;;;4.88;2.10;;;;;;;;;;4994288;28;20101;-79
2021/08/01 01:22:52;;;;;;;7.55;2.40;;;;;;;;;;4994917;28;20106;-78
2021/08/01 01:25:22;;;;;;;4.07;2.38;;;;;;;;;;4994505;28;20034;-79
2021/08/01 01:27:55;;;;;;;5.15;2.40;;;;;;;;;;4995200;28;20061;-79
2021/08/01 01:30:22;;;;;;;6.55;2.45;;;;;;;;;;4993846;28;20139;-79
2021/08/01 01:32:54;;;;;;;7.35;2.53;;;;;;;;;;4994482;28;20487;-79
2021/08/01 01:35:20;;;;;;;3.17;1.92;;;;;;;;;;4995072;28;20085;-79
2021/08/01 01:37:56;;;;;;;6.32;2.58;;;;;;;;;;4994373;28;20492;-79
2021/08/01 01:40:22;;;;;;;5.13;2.80;;;;;;;;;;4994305;28;20073;-79
2021/08/01 01:42:53;;;;;;;5.22;2.20;;;;;;;;;;4995094;28;20031;-79
2021/08/01 01:45:19;;;;;;;8.73;2.60;;;;;;;;;;4994524;28;20496;-79
2021/08/01 01:47:46;;;;;;;4.95;2.03;;;;;;;;;;4995768;28;20030;-78
2021/08/01 01:50:12;;;;;;;6.95;2.17;;;;;;;;;;4999168;28;20107;-79
2021/08/01 01:52:41;;;;;;;6.22;2.50;;;;;;;;;;5000109;28;20022;-79
2021/08/01 01:55:07;;;;;;;3.85;2.03;;;;;;;;;;4997451;28;20023;-79
2021/08/01 01:57:33;;;;;;;6.82;2.35;;;;;;;;;;4992159;28;20026;-79
2021/08/01 01:59:59;;;;;;;3.78;2.28;;;;;;;;;;4992719;28;20101;-79
2021/08/01 02:02:25;;;;;;;5.15;2.35;;;;;;;;;;4993495;28;20027;-79
2021/08/01 02:04:51;;;;;;;5.10;2.20;;;;;;;;;;4994609;28;20488;-80
2021/08/01 02:07:20;;;;;;;3.90;1.92;;;;;;;;;;4995808;28;20035;-80
2021/08/01 02:09:58;;;;;;;5.07;2.28;;;;;;;;;;4996178;28;20022;-80
2021/08/01 02:12:29;;;;;;;6.68;2.35;;;;;;;;;;4997138;28;20026;-80
2021/08/01 02:15:03;;;;;;;4.82;2.47;;;;;;;;;;4997258;28;20022;-80
2021/08/01 02:17:35;;;;;;;4.07;2.20;;;;;;;;;;5011484;28;20460;-80
2021/08/01 02:20:02;;;;;;;4.97;2.15;;;;;;;;;;4994956;28;20050;-80
2021/08/01 02:22:28;;;;;;;4.82;2.10;;;;;;;;;;4998516;28;20077;-80
2021/08/01 02:24:55;;;;;;;6.18;2.75;;;;;;;;;;4997564;28;20315;-80
2021/08/01 02:27:21;;;;;;;4.80;2.40;;;;;;;;;;4998249;28;20522;-80
2021/08/01 02:29:49;;;;;;;5.07;2.80;;;;;;;;;;5000400;28;20483;-79
2021/08/01 02:32:15;;;;;;;7.20;2.50;;;;;;;;;;4999587;28;20027;-80
2021/08/01 02:34:41;;;;;;;3.75;2.30;;;;;;;;;;4999423;28;20088;-81
2021/08/01 02:37:08;;;;;;;3.55;2.20;;;;;;;;;;4999495;28;20050;-81
2021/08/01 02:39:34;;;;;;;5.75;2.78;;;;;;;;;;4999928;28;20042;-81
2021/08/01 02:42:01;;;;;;;5.03;2.50;;;;;;;;;;4999618;28;20034;-81
2021/08/01 02:44:28;;;;;;;4.20;2.67;;;;;;;;;;4999839;28;20398;-81
2021/08/01 02:46:54;;;;;;;6.47;2.85;;;;;;;;;;4998422;28;20049;-81
2021/08/01 02:49:23;;;;;;;4.47;2.65;;;;;;;;;;4998495;28;20049;-81
2021/08/01 02:51:53;;;;;;;5.80;2.50;;;;;;;;;;4998674;28;20033;-80
2021/08/01 02:54:21;;;;;;;4.80;2.72;;;;;;;;;;4999895;28;20142;-79
2021/08/01 02:56:48;;;;;;;8.85;2.88;;;;;;;;;;4996844;28;20022;-81
2021/08/01 02:59:15;;;;;;;5.30;2.50;;;;;;;;;;4998753;28;20517;-81
2021/08/01 03:01:41;;;;;;;5.82;3.45;;;;;;;;;;4999056;28;20031;-80
2021/08/01 03:04:07;;;;;;;5.07;2.88;;;;;;;;;;4999130;28;20030;-81
2021/08/01 03:06:34;;;;;;;7.88;2.65;;;;;;;;;;4999616;28;20023;-81
2021/08/01 03:09:07;;;;;;;5.72;2.67;;;;;;;;;;4999122;28;20030;-81
2021/08/01 03:11:34;;;;;;;8.10;3.53;;;;;;;;;;5000346;28;20023;-81
2021/08/01 03:14:01;;;;;;;7.55;3.75;;;;;;;;;;4999278;28;20672;-81
2021/08/01 03:16:27;;;;;;;8.00;3.38;;;;;;;;;;4999260;28;20022;-81
2021/08/01 03:18:53;;;;;;;5.50;3.08;;;;;;;;;;4998323;28;20057;-81
2021/08/01 03:21:19;;;;;;;5.53;3.10;;;;;;;;;;4999221;28;20034;-81
2021/08/01 03:23:54;;;;;;;4.97;3.00;;;;;;;;;;5000124;28;20069;-81
2021/08/01 03:26:20;;;;;;;9.25;3.22;;;;;;;;;;4999269;28;20438;-81
2021/08/01 03:28:46;;;;;;;6.80;3.22;;;;;;;;;;4999020;28;20034;-81
2021/08/01 03:31:12;;;;;;;4.30;2.78;;;;;;;;;;4998769;28;20034;-81
2021/08/01 03:33:38;;;;;;;4.50;2.88;;;;;;;;;;4998287;28;20085;-82
2021/08/01 03:36:04;;;;;;;7.85;3.35;;;;;;;;;;4998541;28;20092;-82
2021/08/01 03:38:30;;;;;;;8.63;3.40;;;;;;;;;;5000369;28;20069;-82
2021/08/01 03:40:56;;;;;;;7.38;3.50;;;;;;;;;;4999953;28;20049;-82
2021/08/01 03:43:22;;;;;;;6.82;3.28;;;;;;;;;;4999191;28;20380;-82
2021/08/01 03:45:48;;;;;;;3.55;2.70;;;;;;;;;;4998309;28;20035;-82
2021/08/01 03:48:23;;;;;;;6.63;3.00;;;;;;;;;;5000159;28;20032;-81
2021/08/01 03:50:49;;;;;;;7.68;3.10;;;;;;;;;;4999811;28;20061;-81
2021/08/01 03:53:15;;;;;;;11.20;4.30;;;;;;;;;;4998252;28;20034;-82
2021/08/01 03:55:41;;;;;;;6.22;3.20;;;;;;;;;;4999671;28;20087;-81
2021/08/01 03:58:07;;;;;;;4.88;3.17;;;;;;;;;;5000375;28;20559;-81
2021/08/01 04:00:33;;;;;;;5.63;3.10;;;;;;;;;;5000055;28;20023;-81
2021/08/01 04:02:59;;;;;;;7.18;2.95;;;;;;;;;;5000003;28;20507;-81
2021/08/01 04:05:25;;;;;;;8.65;4.10;;;;;;;;;;4999328;28;20028;-81
2021/08/01 04:07:51;;;;;;;7.07;3.10;;;;;;;;;;4999990;28;20054;-81
2021/08/01 04:10:17;;;;;;;10.23;3.70;;;;;;;;;;4997404;28;20554;-81
2021/08/01 04:12:43;;;;;;;8.50;3.85;;;;;;;;;;5000257;28;20034;-82
2021/08/01 04:15:11;;;;;;;6.53;4.07;;;;;;;;;;4999828;28;20046;-81
2021/08/01 04:17:37;;;;;;;8.35;4.30;;;;;;;;;;5010605;28;20015;-79
2021/08/01 04:20:03;;;;;;;8.57;4.82;;;;;;;;;;5005865;28;20040;-80
2021/08/01 04:22:29;;;;;;;9.70;5.45;;;;;;;;;;5003931;28;20199;-79
2021/08/01 04:24:55;;;;;;;8.57;5.35;;;;;;;;;;4997094;28;20030;-79
2021/08/01 04:27:21;;;;;;;11.07;5.47;;;;;;;;;;4996424;28;20105;-80
2021/08/01 04:29:47;;;;;;;9.02;5.30;;;;;;;;;;4996063;28;20110;-80
2021/08/01 04:32:13;;;;;;;11.65;5.88;;;;;;;;;;4996531;28;20030;-81
2021/08/01 04:34:39;;;;;;;8.90;5.45;;;;;;;;;;4996588;28;20031;-80
2021/08/01 04:37:05;;;;;;;10.02;5.68;;;;;;;;;;4999461;28;20113;-79
2021/08/01 04:39:31;;;;;;;12.05;5.57;;;;;;;;;;5000601;28;20022;-79
2021/08/01 04:41:57;;;;;;;11.70;6.53;;;;;;;;;;5001963;28;20050;-80
2021/08/01 04:44:23;;;;;;;8.77;6.20;;;;;;;;;;5003263;28;20506;-80
2021/08/01 04:46:49;;;;;;;11.82;6.85;;;;;;;;;;5002772;28;20030;-80
2021/08/01 04:49:15;;;;;;;9.95;6.32;;;;;;;;;;5000268;28;20061;-80
2021/08/01 04:51:41;;;;;;;9.30;6.43;;;;;;;;;;5003837;28;20034;-80
2021/08/01 04:54:07;;;;;;;9.88;6.85;;;;;;;;;;5006532;28;20088;-80
2021/08/01 04:56:33;;;;;;;12.57;7.00;;;;;;;;;;5007233;28;20246;-80
2021/08/01 04:58:59;;;;;;;10.07;6.00;;;;;;;;;;4990006;28;20142;-80
2021/08/01 05:01:25;;;;;;;12.52;6.82;;;;;;;;;;5003266;28;20038;-80
2021/08/01 05:03:51;;;;;;;9.90;5.28;;;;;;;;;;5003163;28;20117;-81
2021/08/01 05:06:17;;;;;;;10.90;6.65;;;;;;;;;;5005091;28;20030;-80
2021/08/01 05:08:43;;;;;;;12.20;6.13;;;;;;;;;;5005582;28;20509;-80
2021/08/01 05:11:09;;;;;;;9.95;5.65;;;;;;;;;;5006483;28;20370;-80
2021/08/01 05:13:35;;;;;;;10.77;6.13;;;;;;;;;;5006300;28;20037;-80
2021/08/01 05:16:01;;;;;;;9.55;6.00;;;;;;;;;;5004178;28;20037;-80
2021/08/01 05:18:27;;;;;;;13.13;6.28;;;;;;;;;;5001378;28;20027;-80
2021/08/01 05:20:53;;;;;;;8.15;6.25;;;;;;;;;;5005776;28;20035;-80
2021/08/01 05:23:19;;;;;;;15.40;7.07;;;;;;;;;;5006357;28;20095;-80
2021/08/01 05:25:45;;;;;;;10.32;6.88;;;;;;;;;;5006049;28;20027;-80
2021/08/01 05:28:11;;;;;;;10.20;7.35;;;;;;;;;;5003527;28;20030;-80
2021/08/01 05:30:37;;;;;;;10.63;6.40;;;;;;;;;;5006844;28;20105;-80
2021/08/01 05:33:04;;;;;;;10.02;5.82;;;;;;;;;;5015951;28;20097;-80
2021/08/01 05:35:30;;;;;;;10.38;6.35;;;;;;;;;;5015232;28;20049;-80
2021/08/01 05:37:56;;;;;;;7.15;5.32;;;;;;;;;;5011312;28;20031;-80
2021/08/01 05:40:22;;;;;;;10.07;5.28;;;;;;;;;;5004773;28;20198;-80
2021/08/01 05:42:51;;;;;;;13.77;5.40;;;;;;;;;;4997454;28;20050;-81
2021/08/01 05:45:17;;;;;;;7.25;5.32;;;;;;;;;;4997285;28;20117;-81
2021/08/01 05:47:43;;;;;;;11.13;5.72;;;;;;;;;;4994339;28;20023;-84
2021/08/01 05:50:09;;;;;;;9.25;5.05;;;;;;;;;;4997566;28;20026;-82
2021/08/01 05:52:36;;;;;;;8.85;4.97;;;;;;;;;;4999606;28;20030;-82
2021/08/01 05:55:03;;;;;;;7.18;4.88;;;;;;;;;;5000777;28;20022;-82
2021/08/01 05:57:29;;;;;;;8.27;5.03;;;;;;;;;;4999456;28;20031;-82
2021/08/01 05:59:55;;;;;;;8.40;5.03;;;;;;;;;;4998992;28;20034;-80
2021/08/01 06:02:21;;;;;;;8.70;5.05;;;;;;;;;;4998961;28;20439;-82
2021/08/01 06:04:47;;;;;;;7.50;4.93;;;;;;;;;;5001311;28;20037;-82
2021/08/01 06:07:13;;;;;;;7.05;4.60;;;;;;;;;;5000953;28;20069;-82
2021/08/01 06:09:39;;;;;;;9.65;4.80;;;;;;;;;;5002994;28;20042;-82
2021/08/01 06:12:06;;;;;;;7.43;4.38;;;;;;;;;;5014063;28;20025;-82
2021/08/01 06:14:32;;;;;;;8.85;4.30;;;;;;;;;;5015417;28;20053;-81
2021/08/01 06:16:58;;;;;;;5.90;3.90;;;;;;;;;;4999311;28;20065;-82
2021/08/01 06:19:24;;;;;;;4.82;3.83;;;;;;;;;;5000606;28;20034;-81
2021/08/01 06:21:50;;;;;;;7.18;3.95;;;;;;;;;;5003388;28;20642;-82
2021/08/01 06:24:16;;;;;;;6.60;3.60;;;;;;;;;;5005381;28;20026;-79
2021/08/01 06:26:45;;;;;;;7.10;3.67;;;;;;;;;;5004027;28;20003;-80
2021/08/01 06:29:11;;;;;;;7.03;3.20;;;;;;;;;;5004399;28;20113;-81
2021/08/01 06:31:37;;;;;;;6.50;3.30;;;;;;;;;;5006319;28;20027;-81
2021/08/01 06:34:03;;;;;;;7.53;3.40;;;;;;;;;;5004997;28;20113;-80
2021/08/01 06:36:29;;;;;;;5.28;3.70;;;;;;;;;;5003984;28;20026;-81
2021/08/01 06:38:55;;;;;;;8.02;3.53;;;;;;;;;;5002740;28;20406;-80
2021/08/01 06:41:21;;;;;;;9.65;3.53;;;;;;;;;;5001315;28;20033;-82
2021/08/01 06:43:47;;;;;;;5.28;2.70;;;;;;;;;;5002229;28;20045;-79
2021/08/01 06:46:13;;;;;;;3.97;2.65;;;;;;;;;;5002008;28;20029;-80
2021/08/01 06:48:39;;;;;;;6.43;3.00;;;;;;;;;;5001513;28;20026;-80
2021/08/01 06:51:05;;;;;;;4.97;2.72;;;;;;;;;;5001323;28;20034;-82
2021/08/01 06:53:31;;;;;;;4.95;2.55;;;;;;;;;;5002838;28;20030;-82
2021/08/01 06:55:57;;;;;;;5.38;2.70;;;;;;;;;;5002180;28;20414;-81
2021/08/01 06:58:23;;;;;;;3.97;2.38;;;;;;;;;;5002005;28;20034;-81
2021/08/01 07:00:50;;;;;;;2.90;2.00;;;;;;;;;;5001457;28;20223;-80
2021/08/01 07:03:16;;;;;;;3.80;2.17;;;;;;;;;;5003030;28;20023;-82
2021/08/01 07:05:42;;;;;;;3.92;2.10;;;;;;;;;;5002727;28;20112;-81
2021/08/01 07:08:09;;;;;;;3.65;1.85;;;;;;;;;;5001856;28;20679;-82
2021/08/01 07:10:35;;;;;;;6.07;2.30;;;;;;;;;;5000077;28;20030;-81
2021/08/01 07:13:05;;;;;;;5.10;1.98;;;;;;;;;;5000095;28;20035;-82
2021/08/01 07:15:31;;;;;;;4.13;2.03;;;;;;;;;;4987890;28;20109;-82
2021/08/01 07:17:57;;;;;;;4.93;1.83;;;;;;;;;;4985411;28;20030;-81
2021/08/01 07:20:24;;;;;;;3.72;1.55;;;;;;;;;;4987632;28;20158;-81
2021/08/01 07:22:50;;;;;;;6.00;2.05;;;;;;;;;;4988052;28;20038;-81
2021/08/01 07:25:16;;;;;;;8.00;2.40;;;;;;;;;;5001096;28;20403;-81
2021/08/01 07:27:42;;;;;;;3.97;1.85;;;;;;;;;;5009910;28;20150;-81
2021/08/01 07:30:08;;;;;;;3.42;2.22;;;;;;;;;;4992676;28;20035;-81
2021/08/01 07:32:34;;;;;;;5.75;1.80;;;;;;;;;;5015018;28;20026;-82
2021/08/01 07:35:00;;;;;;;4.28;2.10;;;;;;;;;;5016109;28;20054;-80
2021/08/01 07:37:26;;;;;;;3.75;2.10;;;;;;;;;;5010471;28;20027;-81
2021/08/01 07:39:52;;;;;;;7.53;2.20;;;;;;;;;;5004396;28;20117;-80
2021/08/01 07:42:18;;;;;;;3.47;1.80;;;;;;;;;;5002070;28;20093;-81
2021/08/01 07:44:56;;;;;;;4.55;1.85;;;;;;;;;;5008100;28;20022;-81
2021/08/01 07:47:23;;;;;;;5.45;2.05;;;;;;;;;;5007783;28;20029;-81
2021/08/01 07:49:50;;;;;;;5.32;2.85;;;;;;;;;;4999709;28;20033;-81
2021/08/01 07:52:16;;;;;;;5.43;2.67;;;;;;;;;;4997041;28;20049;-82
2021/08/01 07:54:43;;;;;;;5.32;2.13;;;;;;;;;;4998423;28;20035;-82
2021/08/01 07:57:29;;;;;;;4.05;2.13;;;;;;;;;;5000677;28;20030;-82
2021/08/01 07:59:55;;;;;;;4.60;2.08;;;;;;;;;;4995875;28;20032;-82
2021/08/01 08:02:22;;;;;;;4.32;1.80;;;;;;;;;;4995391;28;20030;-81
2021/08/01 08:04:48;;;;;;;4.65;1.92;;;;;;;;;;4997222;28;20069;-81
2021/08/01 08:07:14;;;;;;;4.82;2.08;;;;;;;;;;4996269;28;20395;-82
2021/08/01 08:09:40;;;;;;;10.30;2.17;;;;;;;;;;4997616;28;20049;-81
2021/08/01 08:12:07;;;;;;;5.38;1.90;;;;;;;;;;4998798;28;20030;-81
2021/08/01 08:14:33;;;;;;;4.82;2.10;;;;;;;;;;4997722;28;20038;-82
2021/08/01 08:16:59;;;;;;;5.63;2.33;;;;;;;;;;4998430;28;20038;-82
2021/08/01 08:19:27;;;;;;;6.00;1.83;;;;;;;;;;4998104;28;20110;-81
2021/08/01 08:21:53;;;;;;;5.40;1.83;;;;;;;;;;4995832;28;20026;-81
2021/08/01 08:24:19;;;;;;;3.38;1.85;;;;;;;;;;4994800;28;20030;-81
2021/08/01 08:26:45;;;;;;;3.92;1.95;;;;;;;;;;4997185;28;20023;-80
2021/08/01 08:29:11;;;;;;;5.57;2.17;;;;;;;;;;4995916;28;20038;-80
2021/08/01 08:31:37;;;;;;;3.88;1.92;;;;;;;;;;4999416;28;20565;-80
2021/08/01 08:34:03;;;;;;;2.67;1.42;;;;;;;;;;5001959;28;20030;-80
2021/08/01 08:36:29;;;;;;;6.25;2.10;;;;;;;;;;4998685;28;20124;-81
2021/08/01 08:38:55;;;;;;;6.78;2.20;;;;;;;;;;4998871;28;20039;-82
2021/08/01 08:41:21;;;;;;;6.72;1.95;;;;;;;;;;4996839;28;20049;-81
2021/08/01 08:43:47;;;;;;;2.92;1.70;;;;;;;;;;4996607;28;20030;-81
2021/08/01 08:46:14;;;;;;;5.60;2.00;;;;;;;;;;4996590;28;20033;-81
2021/08/01 08:48:40;;;;;;;3.88;1.70;;;;;;;;;;4997117;28;20484;-82
2021/08/01 08:51:11;;;;;;;4.85;2.00;;;;;;;;;;4996105;28;20034;-82
2021/08/01 08:53:40;;;;;;;4.18;1.77;;;;;;;;;;4998569;28;20030;-81
2021/08/01 08:56:07;;;;;;;3.75;2.10;;;;;;;;;;5005680;28;20058;-81
2021/08/01 08:58:33;;;;;;;5.47;1.98;;;;;;;;;;5004426;28;20027;-81
2021/08/01 09:00:59;;;;;;;5.10;1.98;;;;;;;;;;5002858;28;20061;-81
2021/08/01 09:03:25;;;;;;;5.25;2.40;;;;;;;;;;5002979;28;20030;-82
2021/08/01 09:05:56;;;;;;;4.97;2.00;;;;;;;;;;5009029;28;20048;-82
2021/08/01 09:08:23;;;;;;;5.35;2.28;;;;;;;;;;5004946;28;20064;-81
2021/08/01 09:10:49;;;;;;;5.88;2.20;;;;;;;;;;4999779;28;20026;-82
2021/08/01 09:13:35;;;;;;;4.10;2.10;;;;;;;;;;4997899;28;20042;-81
2021/08/01 09:16:01;;;;;;;6.85;2.45;;;;;;;;;;4999234;28;20046;-82
2021/08/01 09:18:33;;;;;;;5.88;2.00;;;;;;;;;;4999429;28;20034;-82
2021/08/01 09:20:59;;;;;;;5.90;2.10;;;;;;;;;;4998900;28;20022;-82
2021/08/01 09:23:25;;;;;;;6.47;2.10;;;;;;;;;;4999440;28;20029;-81
2021/08/01 09:25:58;;;;;;;6.25;2.08;;;;;;;;;;4999742;28;20034;-81
2021/08/01 09:28:25;;;;;;;5.88;2.15;;;;;;;;;;5000985;28;20034;-82
2021/08/01 09:31:01;;;;;;;3.80;1.80;;;;;;;;;;5002211;28;20026;-82
2021/08/01 09:33:37;;;;;;;4.40;2.03;;;;;;;;;;5002230;28;20030;-82
2021/08/01 09:36:07;;;;;;;3.25;1.98;;;;;;;;;;5000753;28;20030;-82
2021/08/01 09:38:43;;;;;;;4.20;2.15;;;;;;;;;;5008231;28;20034;-81
2021/08/01 09:41:09;;;;;;;4.28;1.73;;;;;;;;;;5005496;28;20031;-82
2021/08/01 09:43:43;;;;;;;4.50;2.15;;;;;;;;;;5007427;28;20058;-81
2021/08/01 09:46:09;;;;;;;5.72;2.28;;;;;;;;;;4997173;28;20026;-82
2021/08/01 09:48:35;;;;;;;7.63;2.30;;;;;;;;;;4997864;28;20034;-84
2021/08/01 09:51:01;;;;;;;4.88;2.00;;;;;;;;;;4998257;28;20506;-85
2021/08/01 09:53:27;;;;;;;5.97;2.38;;;;;;;;;;4999420;28;20053;-85
2021/08/01 09:56:12;;;;;;;6.55;2.28;;;;;;;;;;5000168;28;20057;-84
2021/08/01 09:58:38;;;;;;;5.38;2.20;;;;;;;;;;4997041;28;20022;-82
2021/08/01 10:01:04;;;;;;;4.18;1.80;;;;;;;;;;4995258;28;20475;-83
2021/08/01 10:03:37;;;;;;;5.53;1.98;;;;;;;;;;4996995;28;20022;-83
2021/08/01 10:06:10;;;;;;;8.90;2.67;;;;;;;;;;4996532;28;20113;-85
2021/08/01 10:08:46;;;;;;;5.32;2.17;;;;;;;;;;4995092;28;20121;-82
2021/08/01 10:11:14;;;;;;;5.78;2.28;;;;;;;;;;4995512;28;20027;-82
2021/08/01 10:13:41;;;;;;;4.13;2.03;;;;;;;;;;4994437;28;20042;-83
2021/08/01 10:16:08;;;;;;;3.40;2.05;;;;;;;;;;4994551;28;20177;-83
2021/08/01 10:18:35;;;;;;;6.05;2.38;;;;;;;;;;4998495;28;20029;-84
2021/08/01 10:21:01;;;;;;;6.55;2.40;;;;;;;;;;4998821;28;20018;-82
2021/08/01 10:23:28;;;;;;;4.57;2.70;;;;;;;;;;4996197;28;20124;-83
2021/08/01 10:25:54;;;;;;;2.80;2.00;;;;;;;;;;4997699;28;20100;-81
2021/08/01 10:28:23;;;;;;;6.43;2.28;;;;;;;;;;4999872;28;20061;-83
2021/08/01 10:30:49;;;;;;;4.10;2.15;;;;;;;;;;5000317;28;20033;-83
2021/08/01 10:33:19;;;;;;;6.68;2.08;;;;;;;;;;5007146;28;20062;-82
2021/08/01 10:35:52;;;;;;;4.43;2.00;;;;;;;;;;5001349;28;20029;-83
2021/08/01 10:38:19;;;;;;;7.85;2.30;;;;;;;;;;4999280;28;20431;-83
2021/08/01 10:40:51;;;;;;;4.18;2.08;;;;;;;;;;4999598;28;20026;-84
2021/08/01 10:43:20;;;;;;;2.65;1.73;;;;;;;;;;4991529;28;20121;-81
2021/08/01 10:45:46;;;;;;;5.40;2.33;;;;;;;;;;4993962;28;20023;-82
2021/08/01 10:48:13;;;;;;;6.78;2.30;;;;;;;;;;4997328;28;20030;-82
2021/08/01 10:50:41;;;;;;;4.40;2.13;;;;;;;;;;4981734;28;20039;-83
2021/08/01 10:53:19;;;;;;;3.15;1.77;;;;;;;;;;4999401;28;20030;-82
2021/08/01 10:55:48;;;;;;;5.57;2.08;;;;;;;;;;5000566;28;20030;-82
2021/08/01 10:58:15;;;;;;;4.68;1.92;;;;;;;;;;5000378;28;20045;-83
2021/08/01 11:01:01;;;;;;;4.78;2.20;;;;;;;;;;5001512;28;20042;-82
2021/08/01 11:03:27;;;;;;;4.57;1.92;;;;;;;;;;5001164;28;20022;-82
2021/08/01 11:05:53;;;;;;;5.30;2.65;;;;;;;;;;5001577;28;20065;-82
2021/08/01 11:08:19;;;;;;;5.90;1.90;;;;;;;;;;5002851;28;20077;-82
2021/08/01 11:10:46;;;;;;;4.90;2.00;;;;;;;;;;5004005;28;20093;-81
2021/08/01 11:13:32;;;;;;;8.35;2.60;;;;;;;;;;4998004;28;20060;-81
2021/08/01 11:15:58;;;;;;;4.40;1.60;;;;;;;;;;4984008;28;20108;-81
2021/08/01 11:18:34;;;;;;;4.35;2.10;;;;;;;;;;4994769;28;20427;-81
2021/08/01 11:21:03;;;;;;;3.50;1.90;;;;;;;;;;5001449;28;20023;-81
2021/08/01 11:23:45;;;;;;;3.30;1.92;;;;;;;;;;5003519;28;20029;-82
2021/08/01 11:26:12;;;;;;;4.13;1.90;;;;;;;;;;5015383;28;20058;-81
2021/08/01 11:28:39;;;;;;;6.90;1.80;;;;;;;;;;5007293;28;20035;-82
2021/08/01 11:31:06;;;;;;;4.00;1.70;;;;;;;;;;4997159;28;20045;-80
2021/08/01 11:33:35;;;;;;;3.85;1.88;;;;;;;;;;4997818;28;20036;-81
2021/08/01 11:36:15;;;;;;;5.38;1.65;;;;;;;;;;4999185;28;20026;-81
2021/08/01 11:38:50;;;;;;;6.82;2.60;;;;;;;;;;4994492;28;20153;-81
2021/08/01 11:41:28;;;;;;;3.08;1.60;;;;;;;;;;4999584;28;20041;-82
2021/08/01 11:44:04;;;;;;;4.93;1.80;;;;;;;;;;5003761;28;20037;-80
2021/08/01 11:46:50;;;;;;;5.03;1.45;;;;;;;;;;4981423;28;20087;-81
2021/08/01 11:49:24;;;;;;;4.72;1.70;;;;;;;;;;4978630;28;20023;-83
2021/08/01 11:51:51;;;;;;;6.57;1.70;;;;;;;;;;4977546;28;20030;-82
2021/08/01 11:54:18;;;;;;;5.60;1.42;;;;;;;;;;4997751;28;20030;-85
2021/08/01 11:56:45;;;;;;;3.95;1.65;;;;;;;;;;5004750;28;20038;-82
2021/08/01 11:59:14;;;;;;;2.47;1.35;;;;;;;;;;4998468;28;20081;-81
2021/08/01 12:01:40;;;;;;;4.32;1.77;;;;;;;;;;4998161;28;20022;-83
2021/08/01 12:04:10;;;;;;;3.40;1.67;;;;;;;;;;4998496;28;20041;-81
2021/08/01 12:06:37;;;;;;;2.63;1.45;;;;;;;;;;4993968;28;20026;-82
2021/08/01 12:09:22;;;;;;;2.78;1.48;;;;;;;;;;4996253;28;20044;-82
2021/08/01 12:11:52;;;;;;;3.30;1.50;;;;;;;;;;5033287;22;20041;-79
2021/08/01 12:14:18;;;;;;;3.45;1.67;;;;;;;;;;5028399;28;20107;-79
2021/08/01 12:16:57;;;;;;;2.60;1.30;;;;;;;;;;5042896;28;20072;-79
2021/08/01 12:19:28;;;;;;;2.38;1.10;;;;;;;;;;5024010;28;20026;-78
2021/08/01 12:21:56;;;;;;;3.17;1.52;;;;;;;;;;5034998;28;20090;-79
2021/08/01 12:24:31;;;;;;;2.33;1.30;;;;;;;;;;5034122;28;20167;-80
2021/08/01 12:27:00;;;;;;;3.92;1.30;;;;;;;;;;5035275;28;20445;-80
2021/08/01 12:29:39;;;;;;;2.65;1.50;;;;;;;;;;5016594;28;20493;-80
2021/08/01 12:32:19;;;;;;;2.22;1.10;;;;;;;;;;5033254;28;20028;-79
2021/08/01 12:34:45;;;;;;;3.67;1.33;;;;;;;;;;5032688;28;20025;-79
2021/08/01 12:37:11;;;;;;;4.22;1.30;;;;;;;;;;5036803;28;20025;-80
2021/08/01 12:39:44;;;;;;;4.00;1.27;;;;;;;;;;5033934;28;20100;-79
2021/08/01 12:42:11;;;;;;;6.03;1.80;;;;;;;;;;5037566;28;20043;-80
2021/08/01 12:44:48;;;;;;;4.10;1.58;;;;;;;;;;5016839;28;20108;-80
2021/08/01 12:47:14;;;;;;;3.72;1.40;;;;;;;;;;5013377;28;20025;-80
2021/08/01 12:49:40;;;;;;;4.07;1.40;;;;;;;;;;5037127;28;20548;-79
2021/08/01 12:52:07;;;;;;;2.03;1.27;;;;;;;;;;5034058;28;20029;-79
2021/08/01 12:54:33;;;;;;;2.35;1.40;;;;;;;;;;5010201;28;20542;-80
2021/08/01 12:57:10;;;;;;;2.42;1.48;;;;;;;;;;5032053;28;20029;-80
2021/08/01 12:59:36;;;;;;;1.83;1.00;;;;;;;;;;5016068;28;20025;-79
2021/08/01 13:02:02;;;;;;;5.60;1.40;;;;;;;;;;5017892;28;20026;-80
2021/08/01 13:04:38;;;;;;;1.98;1.25;;;;;;;;;;5035057;28;20552;-78
2021/08/01 13:07:04;;;;;;;3.00;1.20;;;;;;;;;;5013736;28;20021;-79
2021/08/01 13:09:30;;;;;;;2.65;0.80;;;;;;;;;;5014796;28;20389;-80
2021/08/01 13:11:56;;;;;;;1.52;0.70;;;;;;;;;;4999590;28;20065;-79
2021/08/01 13:14:32;;;;;;;4.07;0.60;;;;;;;;;;5015657;28;20033;-80
2021/08/01 13:19:42;;;;;;;0.95;0.60;;;;;;;;;;5159215;22;20051;-78
2021/08/01 13:22:12;;;;;;;1.85;0.70;;;;;;;;;;5007679;28;20018;-79
2021/08/01 13:24:38;;;;;;;1.35;0.68;;;;;;;;;;5000838;28;20026;-78
2021/08/01 13:27:05;;;;;;;1.48;0.75;;;;;;;;;;5019168;28;20076;-78
2021/08/01 13:29:31;;;;;;;1.42;0.60;;;;;;;;;;5019492;28;20032;-78
2021/08/01 13:32:05;;;;;;;3.78;0.95;;;;;;;;;;4995961;28;20036;-78
2021/08/01 13:34:45;;;;;;;0.77;0.57;;;;;;;;;;5014035;28;20093;-79
2021/08/01 13:37:17;;;;;;;2.95;1.13;;;;;;;;;;5014289;28;20371;-78
2021/08/01 13:39:43;;;;;;;1.50;0.97;;;;;;;;;;5017457;28;20033;-78
2021/08/01 13:42:14;;;;;;;3.17;0.80;;;;;;;;;;5015425;28;20095;-79
2021/08/01 13:44:40;;;;;;;1.58;0.90;;;;;;;;;;4998353;28;20018;-79
2021/08/01 13:47:12;;;;;;;2.00;0.82;;;;;;;;;;4996681;28;20026;-78
2021/08/01 13:49:38;;;;;;;;;;;;;;;;;;4993866;28;20132;-79
2021/08/01 13:52:07;;;;;;;2.40;0.90;;;;;;;;;;4996492;28;19937;-79
2021/08/01 13:54:32;;;;;;;2.38;0.75;;;;;;;;;;5014226;28;20556;-79
2021/08/01 13:56:58;;;;;;;1.67;0.95;;;;;;;;;;5011770;28;20025;-79
2021/08/01 13:59:24;;;;;;;1.17;0.80;;;;;;;;;;5013027;28;20045;-79
2021/08/01 14:01:50;;;;;;;3.17;0.80;;;;;;;;;;5021249;28;20026;-78
2021/08/01 14:04:16;;;;;;;2.47;0.73;;;;;;;;;;4980007;28;20030;-79
2021/08/01 14:06:42;;;;;;;3.25;0.80;;;;;;;;;;5014145;28;20037;-78
2021/08/01 14:09:08;;;;;;;1.13;0.70;;;;;;;;;;4995917;28;20485;-79
2021/08/01 14:11:34;;;;;;;1.25;0.68;;;;;;;;;;4996618;28;20105;-79
2021/08/01 14:14:00;;;;;;;1.33;0.47;;;;;;;;;;5024636;28;20025;-79
2021/08/01 14:16:26;;;;;;;2.60;0.90;;;;;;;;;;4995998;28;20632;-79
2021/08/01 14:18:52;;;;;;;1.55;0.80;;;;;;;;;;4995707;28;20096;-78
2021/08/01 14:21:18;;;;;;;3.00;0.70;;;;;;;;;;4993611;28;20025;-79
2021/08/01 14:23:46;;;;;;;1.98;0.65;;;;;;;;;;5022572;28;20425;-78
2021/08/01 14:26:13;;;;;;;1.52;0.57;;;;;;;;;;5018183;28;20037;-79
2021/08/01 14:28:39;;;;;;;1.27;0.77;;;;;;;;;;4997276;28;20026;-80
2021/08/01 14:31:06;;;;;;;1.83;0.80;;;;;;;;;;4983801;28;20040;-80
2021/08/01 14:33:34;;;;;;;2.47;0.80;;;;;;;;;;5014526;28;20034;-80
2021/08/01 14:36:00;;;;;;;2.90;0.65;;;;;;;;;;4997636;28;20054;-80
2021/08/01 14:38:27;;;;;;;3.30;0.68;;;;;;;;;;4999605;28;20060;-80
2021/08/01 14:40:53;;;;;;;1.48;0.63;;;;;;;;;;5023367;28;20038;-79
2021/08/01 14:43:21;;;;;;;0.60;0.52;;;;;;;;;;5017345;28;20041;-80
2021/08/01 14:45:48;;;;;;;3.22;0.82;;;;;;;;;;5002230;28;20406;-80
2021/08/01 14:48:16;;;;;;;1.98;1.50;;;;;;;;;;4998922;28;20033;-79
2021/08/01 14:50:44;;;;;;;1.90;0.88;;;;;;;;;;4984159;28;20037;-79